Time;durP1;ratioP1;P1;durP2;ratioP2;P2;SDS_P1;SDS_P2;PMS_P1;PMS_P2;Temp;Humidity;BMP_temperature;BMP_pressure;BME280_temperature;BME280_humidity;BME280_pressure;Samples;Min_cycle;Max_cycle;Signal;HPM_P1;HPM_P2
2022/11/15 00:00:29;;;;;;;34.42;15.45;;;;;;;;;;5072296;28;20053;-78
2022/11/15 00:02:55;;;;;;;39.92;16.30;;;;;;;;;;5072022;28;20052;-78
2022/11/15 00:05:22;;;;;;;38.85;17.20;;;;;;;;;;5091710;28;20052;-78
2022/11/15 00:07:48;;;;;;;35.65;16.17;;;;;;;;;;5092122;28;20067;-78
2022/11/15 00:10:21;;;;;;;39.55;16.70;;;;;;;;;;5094652;28;20541;-77
2022/11/15 00:12:47;;;;;;;38.35;17.85;;;;;;;;;;5091474;28;20131;-79
2022/11/15 00:15:14;;;;;;;35.10;17.02;;;;;;;;;;5093073;28;20048;-79
2022/11/15 00:17:40;;;;;;;37.25;17.50;;;;;;;;;;5094366;28;20435;-78
2022/11/15 00:20:07;;;;;;;39.15;16.35;;;;;;;;;;5093728;28;20044;-78
2022/11/15 00:22:34;;;;;;;38.45;16.42;;;;;;;;;;5092960;28;20132;-78
2022/11/15 00:25:00;;;;;;;40.55;17.80;;;;;;;;;;5098155;28;20068;-77
2022/11/15 00:27:27;;;;;;;38.63;16.55;;;;;;;;;;5092866;28;20139;-78
2022/11/15 00:29:53;;;;;;;39.65;17.52;;;;;;;;;;5092558;28;20132;-79
2022/11/15 00:32:20;;;;;;;37.25;17.13;;;;;;;;;;5094412;28;20048;-77
2022/11/15 00:34:46;;;;;;;38.65;16.92;;;;;;;;;;5093336;28;20050;-79
2022/11/15 00:37:12;;;;;;;40.13;17.67;;;;;;;;;;5095302;28;20044;-78
2022/11/15 00:39:39;;;;;;;38.92;16.75;;;;;;;;;;5093928;28;20052;-78
2022/11/15 00:42:05;;;;;;;36.53;15.93;;;;;;;;;;5073641;28;20048;-78
2022/11/15 00:44:31;;;;;;;37.75;15.88;;;;;;;;;;5090681;28;20054;-77
2022/11/15 00:46:58;;;;;;;38.72;16.50;;;;;;;;;;5092075;28;20101;-77
2022/11/15 00:49:24;;;;;;;32.60;15.15;;;;;;;;;;5091635;28;20055;-78
2022/11/15 00:51:51;;;;;;;33.28;16.02;;;;;;;;;;5091737;28;20439;-78
2022/11/15 00:54:17;;;;;;;35.47;15.13;;;;;;;;;;5090367;28;20051;-78
2022/11/15 00:56:44;;;;;;;36.03;15.23;;;;;;;;;;5091555;28;20048;-77
2022/11/15 00:59:10;;;;;;;35.03;15.18;;;;;;;;;;5091011;28;20048;-78
2022/11/15 01:01:36;;;;;;;38.42;15.00;;;;;;;;;;5092761;28;20058;-79
2022/11/15 01:04:03;;;;;;;30.20;14.23;;;;;;;;;;5091128;28;20056;-78
2022/11/15 01:06:29;;;;;;;29.98;14.13;;;;;;;;;;5092760;28;20451;-78
2022/11/15 01:08:56;;;;;;;33.38;14.48;;;;;;;;;;5092808;28;20040;-78
2022/11/15 01:11:22;;;;;;;28.10;13.15;;;;;;;;;;5093248;28;20651;-76
2022/11/15 01:13:48;;;;;;;37.08;14.00;;;;;;;;;;5093076;28;20408;-78
2022/11/15 01:16:17;;;;;;;33.25;13.45;;;;;;;;;;5093831;28;20072;-78
2022/11/15 01:18:44;;;;;;;32.13;13.80;;;;;;;;;;5094004;28;20048;-78
2022/11/15 01:21:15;;;;;;;31.88;13.07;;;;;;;;;;5094848;28;20066;-79
2022/11/15 01:23:41;;;;;;;34.05;14.70;;;;;;;;;;5093904;28;20056;-78
2022/11/15 01:26:10;;;;;;;34.65;14.02;;;;;;;;;;5095614;28;20143;-78
2022/11/15 01:28:37;;;;;;;32.22;14.25;;;;;;;;;;5093386;28;20047;-78
2022/11/15 01:31:05;;;;;;;35.75;14.63;;;;;;;;;;5093702;28;20262;-80
2022/11/15 01:33:33;;;;;;;31.13;13.52;;;;;;;;;;5091399;28;20080;-78
2022/11/15 01:36:03;;;;;;;26.30;12.57;;;;;;;;;;5091470;28;20044;-77
2022/11/15 01:38:29;;;;;;;30.63;13.50;;;;;;;;;;5091441;28;20062;-78
2022/11/15 01:40:56;;;;;;;24.98;11.90;;;;;;;;;;5094329;28;20507;-77
2022/11/15 01:43:23;;;;;;;30.00;12.85;;;;;;;;;;5075947;28;20379;-78
2022/11/15 01:45:56;;;;;;;30.73;13.10;;;;;;;;;;5101307;28;20059;-78
2022/11/15 01:48:25;;;;;;;32.08;12.90;;;;;;;;;;5109730;28;20116;-78
2022/11/15 01:50:52;;;;;;;27.55;12.48;;;;;;;;;;5085119;28;20040;-78
2022/11/15 01:53:20;;;;;;;28.10;12.88;;;;;;;;;;5099948;28;20043;-79
2022/11/15 01:55:46;;;;;;;34.90;13.80;;;;;;;;;;5094266;28;20048;-78
2022/11/15 01:58:12;;;;;;;30.35;12.98;;;;;;;;;;5092733;28;20047;-78
2022/11/15 02:00:39;;;;;;;27.83;12.45;;;;;;;;;;5092004;28;20062;-79
2022/11/15 02:03:06;;;;;;;28.63;12.00;;;;;;;;;;5089905;28;20048;-78
2022/11/15 02:05:33;;;;;;;29.48;12.52;;;;;;;;;;5091626;28;20048;-78
2022/11/15 02:07:59;;;;;;;31.30;12.35;;;;;;;;;;5091071;28;20052;-78
2022/11/15 02:10:27;;;;;;;26.85;11.52;;;;;;;;;;5090438;28;20143;-78
2022/11/15 02:12:54;;;;;;;28.40;12.50;;;;;;;;;;5096850;28;20048;-78
2022/11/15 02:15:21;;;;;;;28.13;11.65;;;;;;;;;;5106138;28;20072;-78
2022/11/15 02:18:10;;;;;;;27.90;11.70;;;;;;;;;;5097478;28;20360;-78
2022/11/15 02:20:52;;;;;;;24.92;11.32;;;;;;;;;;5072830;28;20056;-79
2022/11/15 02:23:18;;;;;;;24.60;12.07;;;;;;;;;;5088883;28;20104;-77
2022/11/15 02:26:00;;;;;;;26.63;11.68;;;;;;;;;;5090260;28;20070;-78
2022/11/15 02:28:33;;;;;;;29.00;11.80;;;;;;;;;;5089734;28;20338;-77
2022/11/15 02:31:15;;;;;;;30.25;12.85;;;;;;;;;;5089881;28;20519;-78
2022/11/15 02:33:41;;;;;;;28.08;12.25;;;;;;;;;;5089916;28;20044;-77
2022/11/15 02:36:23;;;;;;;31.02;12.48;;;;;;;;;;5089137;28;20048;-77
2022/11/15 02:39:01;;;;;;;25.38;11.30;;;;;;;;;;5090392;28;20221;-79
2022/11/15 02:41:38;;;;;;;28.90;12.20;;;;;;;;;;5072635;28;20056;-78
2022/11/15 02:44:13;;;;;;;27.15;11.68;;;;;;;;;;5088369;28;20492;-77
2022/11/15 02:49:27;;;;;;;26.85;11.40;;;;;;;;;;5090228;28;20040;-78
2022/11/15 02:51:54;;;;;;;25.85;11.50;;;;;;;;;;5090094;28;20135;-80
2022/11/15 02:54:25;;;;;;;26.55;11.55;;;;;;;;;;5094094;28;20124;-78
2022/11/15 02:56:58;;;;;;;24.60;11.32;;;;;;;;;;5095467;28;20044;-77
2022/11/15 02:59:35;;;;;;;22.73;10.00;;;;;;;;;;5095419;28;20132;-79
2022/11/15 03:02:04;;;;;;;27.80;10.95;;;;;;;;;;5096352;28;20086;-78
2022/11/15 03:04:41;;;;;;;27.23;11.77;;;;;;;;;;5095983;28;20157;-78
2022/11/15 03:07:12;;;;;;;23.98;10.57;;;;;;;;;;5095984;28;20132;-78
2022/11/15 03:10:01;;;;;;;25.67;10.43;;;;;;;;;;5095146;28;20128;-79
2022/11/15 03:12:32;;;;;;;26.65;11.18;;;;;;;;;;5086823;28;20044;-79
2022/11/15 03:15:22;;;;;;;25.05;10.50;;;;;;;;;;5101989;28;20044;-79
2022/11/15 03:17:58;;;;;;;24.88;10.85;;;;;;;;;;5089569;28;20072;-78
2022/11/15 03:20:26;;;;;;;22.23;10.73;;;;;;;;;;5095814;28;20098;-77
2022/11/15 03:22:54;;;;;;;27.08;11.25;;;;;;;;;;5094064;28;20147;-77
2022/11/15 03:25:22;;;;;;;24.10;11.43;;;;;;;;;;5095049;28;20135;-79
2022/11/15 03:27:51;;;;;;;31.63;12.10;;;;;;;;;;5096299;28;20112;-77
2022/11/15 03:30:18;;;;;;;28.95;12.13;;;;;;;;;;5096086;28;20563;-78
2022/11/15 03:32:47;;;;;;;27.40;11.32;;;;;;;;;;5096906;28;20055;-76
2022/11/15 03:35:17;;;;;;;30.10;11.88;;;;;;;;;;5099500;28;20040;-76
2022/11/15 03:37:48;;;;;;;31.20;12.23;;;;;;;;;;5115680;28;20127;-77
2022/11/15 03:40:16;;;;;;;32.25;12.73;;;;;;;;;;5116121;28;20073;-77
2022/11/15 03:42:45;;;;;;;27.35;11.98;;;;;;;;;;5094082;28;20085;-76
2022/11/15 03:45:21;;;;;;;24.65;11.88;;;;;;;;;;5092785;28;20048;-78
2022/11/15 03:47:47;;;;;;;;;;;;;;;;;;5094173;28;20511;-77
2022/11/15 03:50:19;;;;;;;25.75;10.25;;;;;;;;;;5092917;28;19920;-77
2022/11/15 03:52:47;;;;;;;23.80;11.43;;;;;;;;;;5092623;28;20048;-77
2022/11/15 03:55:15;;;;;;;27.70;10.80;;;;;;;;;;5092731;28;20055;-78
2022/11/15 03:57:42;;;;;;;24.67;10.82;;;;;;;;;;5091596;28;20511;-78
2022/11/15 04:00:08;;;;;;;26.08;11.23;;;;;;;;;;5092215;28;20135;-76
2022/11/15 04:02:35;;;;;;;29.25;11.20;;;;;;;;;;5091395;28;20072;-78
2022/11/15 04:05:01;;;;;;;23.80;10.18;;;;;;;;;;5089826;28;20058;-75
2022/11/15 04:07:28;;;;;;;24.98;10.60;;;;;;;;;;5091653;28;20151;-77
2022/11/15 04:10:03;;;;;;;26.33;11.00;;;;;;;;;;5093032;28;20048;-78
2022/11/15 04:12:31;;;;;;;27.45;10.85;;;;;;;;;;5089794;28;20138;-78
2022/11/15 04:15:07;;;;;;;26.95;10.73;;;;;;;;;;5085832;28;20055;-77
2022/11/15 04:17:50;;;;;;;31.77;11.93;;;;;;;;;;5092035;28;20050;-77
2022/11/15 04:25:52;;;;;;;26.52;11.82;;;;;;;;;;5088066;28;20567;-76
2022/11/15 04:28:19;;;;;;;26.67;11.65;;;;;;;;;;5090216;28;20385;-76
2022/11/15 04:30:45;;;;;;;28.90;11.52;;;;;;;;;;5090694;28;20062;-77
2022/11/15 04:33:12;;;;;;;28.35;11.52;;;;;;;;;;5091961;28;20103;-77
2022/11/15 04:35:38;;;;;;;28.13;11.75;;;;;;;;;;5091743;28;20484;-78
2022/11/15 04:38:05;;;;;;;28.38;11.00;;;;;;;;;;5092497;28;20050;-78
2022/11/15 04:40:32;;;;;;;27.83;11.13;;;;;;;;;;5094163;28;20044;-78
2022/11/15 04:42:58;;;;;;;25.77;11.73;;;;;;;;;;5095077;28;20536;-78
2022/11/15 04:45:29;;;;;;;25.75;11.57;;;;;;;;;;5104542;28;20115;-78
2022/11/15 04:47:55;;;;;;;25.23;10.23;;;;;;;;;;5097972;28;20040;-77
2022/11/15 04:50:22;;;;;;;26.67;10.82;;;;;;;;;;5092625;28;20206;-78
2022/11/15 04:52:52;;;;;;;25.40;10.70;;;;;;;;;;5093200;28;20128;-78
2022/11/15 04:55:19;;;;;;;19.58;9.18;;;;;;;;;;5096243;28;20054;-79
2022/11/15 04:57:45;;;;;;;22.30;10.02;;;;;;;;;;5093367;28;20050;-78
2022/11/15 05:00:13;;;;;;;23.88;10.23;;;;;;;;;;5090676;28;20051;-78
2022/11/15 05:05:24;;;;;;;21.80;9.95;;;;;;;;;;5090358;28;20074;-78
2022/11/15 05:07:51;;;;;;;21.67;9.80;;;;;;;;;;5091748;28;20056;-78
2022/11/15 05:10:17;;;;;;;20.38;9.73;;;;;;;;;;5094699;28;20039;-77
2022/11/15 05:12:44;;;;;;;23.75;10.35;;;;;;;;;;5071912;28;20119;-75
2022/11/15 05:15:10;;;;;;;19.33;9.25;;;;;;;;;;5085541;28;20102;-75
2022/11/15 05:17:36;;;;;;;18.80;8.70;;;;;;;;;;5088915;28;20056;-76
2022/11/15 05:20:03;;;;;;;20.13;9.55;;;;;;;;;;5087991;28;20248;-76
2022/11/15 05:22:29;;;;;;;21.70;9.75;;;;;;;;;;5087396;28;20051;-76
2022/11/15 05:24:56;;;;;;;26.08;11.20;;;;;;;;;;5087915;28;20397;-76
2022/11/15 05:27:22;;;;;;;20.10;9.98;;;;;;;;;;5087495;28;20050;-76
2022/11/15 05:29:49;;;;;;;25.00;9.73;;;;;;;;;;5087022;28;20040;-78
2022/11/15 05:32:15;;;;;;;20.75;9.07;;;;;;;;;;5071895;28;20036;-78
2022/11/15 05:34:42;;;;;;;18.85;8.60;;;;;;;;;;5089656;28;20055;-78
2022/11/15 05:37:08;;;;;;;21.55;8.95;;;;;;;;;;5091308;28;20055;-78
2022/11/15 05:39:35;;;;;;;23.95;8.73;;;;;;;;;;5092003;28;20052;-78
2022/11/15 05:42:04;;;;;;;22.00;8.85;;;;;;;;;;5091396;28;20058;-79
2022/11/15 05:44:31;;;;;;;21.33;8.48;;;;;;;;;;5071608;28;20052;-79
2022/11/15 05:46:58;;;;;;;19.55;8.25;;;;;;;;;;5090733;28;20050;-79
2022/11/15 05:49:31;;;;;;;20.77;8.50;;;;;;;;;;5090130;28;20586;-79
2022/11/15 05:51:57;;;;;;;23.73;9.00;;;;;;;;;;5088288;28;20036;-80
2022/11/15 05:54:24;;;;;;;23.92;9.82;;;;;;;;;;5089938;28;20480;-78
2022/11/15 05:56:51;;;;;;;23.65;9.00;;;;;;;;;;5071659;28;20392;-78
2022/11/15 05:59:18;;;;;;;22.42;8.30;;;;;;;;;;5089294;28;20054;-78
2022/11/15 06:01:44;;;;;;;22.52;8.65;;;;;;;;;;5088719;28;20520;-78
2022/11/15 06:04:11;;;;;;;17.75;8.15;;;;;;;;;;5088335;28;20120;-78
2022/11/15 06:06:38;;;;;;;20.50;8.48;;;;;;;;;;5089020;28;20047;-78
2022/11/15 06:09:04;;;;;;;24.15;8.65;;;;;;;;;;5090149;28;20453;-78
2022/11/15 06:11:31;;;;;;;16.08;7.88;;;;;;;;;;5089580;28;20044;-78
2022/11/15 06:13:57;;;;;;;16.63;7.15;;;;;;;;;;5088989;28;20048;-78
2022/11/15 06:16:23;;;;;;;17.85;7.70;;;;;;;;;;5090289;28;20055;-78
2022/11/15 06:18:50;;;;;;;15.15;7.75;;;;;;;;;;5095252;28;20122;-77
2022/11/15 06:21:16;;;;;;;20.33;8.38;;;;;;;;;;5096136;28;20048;-77
2022/11/15 06:23:42;;;;;;;21.80;8.02;;;;;;;;;;5089486;28;20052;-78
2022/11/15 06:26:09;;;;;;;20.15;8.80;;;;;;;;;;5088551;28;20059;-78
2022/11/15 06:28:35;;;;;;;23.00;7.97;;;;;;;;;;5091391;28;20217;-80
2022/11/15 06:31:11;;;;;;;17.42;7.60;;;;;;;;;;5091697;28;20066;-80
2022/11/15 06:33:38;;;;;;;17.50;7.63;;;;;;;;;;5090990;28;20047;-78
2022/11/15 06:36:06;;;;;;;18.73;8.00;;;;;;;;;;5089666;28;20360;-78
2022/11/15 06:38:32;;;;;;;18.10;7.70;;;;;;;;;;5092419;28;20107;-78
2022/11/15 06:41:06;;;;;;;17.73;7.20;;;;;;;;;;5090952;28;20500;-79
2022/11/15 06:43:33;;;;;;;13.52;6.35;;;;;;;;;;5095529;28;21496;-78
2022/11/15 06:46:00;;;;;;;17.35;7.13;;;;;;;;;;5089721;28;20397;-79
2022/11/15 06:48:27;;;;;;;16.23;7.00;;;;;;;;;;5091207;28;20044;-78
2022/11/15 06:50:54;;;;;;;14.35;6.97;;;;;;;;;;5089812;28;20068;-78
2022/11/15 06:53:21;;;;;;;15.02;7.05;;;;;;;;;;5088907;28;20074;-78
2022/11/15 06:55:47;;;;;;;18.10;7.25;;;;;;;;;;5088751;28;20055;-78
2022/11/15 06:58:20;;;;;;;18.10;7.40;;;;;;;;;;5089297;28;20054;-78
2022/11/15 07:00:47;;;;;;;17.90;7.72;;;;;;;;;;5090640;28;20054;-79
2022/11/15 07:03:13;;;;;;;14.73;7.10;;;;;;;;;;5094784;28;20131;-79
2022/11/15 07:05:40;;;;;;;15.23;7.32;;;;;;;;;;5090511;28;20086;-79
2022/11/15 07:08:06;;;;;;;17.20;6.72;;;;;;;;;;5099674;28;20103;-80
2022/11/15 07:10:32;;;;;;;18.15;7.20;;;;;;;;;;5095545;28;20056;-79
2022/11/15 07:12:59;;;;;;;13.20;6.65;;;;;;;;;;5092111;28;20108;-79
2022/11/15 07:15:26;;;;;;;16.65;7.60;;;;;;;;;;5093277;28;20044;-78
2022/11/15 07:17:52;;;;;;;15.30;6.85;;;;;;;;;;5091622;28;20346;-78
2022/11/15 07:20:18;;;;;;;15.88;7.72;;;;;;;;;;5091157;28;20121;-78
2022/11/15 07:22:45;;;;;;;14.23;7.50;;;;;;;;;;5094163;28;20044;-78
2022/11/15 07:25:11;;;;;;;16.85;7.35;;;;;;;;;;5099570;28;20055;-78
2022/11/15 07:27:38;;;;;;;14.27;7.13;;;;;;;;;;5098835;28;20048;-79
2022/11/15 07:30:04;;;;;;;16.85;7.18;;;;;;;;;;5097467;28;20044;-79
2022/11/15 07:32:31;;;;;;;18.35;7.30;;;;;;;;;;5090693;28;20048;-79
2022/11/15 07:34:57;;;;;;;15.77;7.30;;;;;;;;;;5089491;28;20048;-79
2022/11/15 07:37:24;;;;;;;17.77;7.65;;;;;;;;;;5091012;28;20048;-78
2022/11/15 07:39:50;;;;;;;21.98;9.85;;;;;;;;;;5093127;28;20435;-78
2022/11/15 07:45:02;;;;;;;27.37;15.60;;;;;;;;;;5093274;28;20051;-78
2022/11/15 07:47:28;;;;;;;37.58;19.25;;;;;;;;;;5095934;28;20246;-78
2022/11/15 07:49:55;;;;;;;35.22;18.48;;;;;;;;;;5094298;28;20044;-79
2022/11/15 07:52:21;;;;;;;30.90;16.63;;;;;;;;;;5093461;28;20052;-78
2022/11/15 07:54:47;;;;;;;25.33;13.32;;;;;;;;;;5092681;28;20040;-79
2022/11/15 07:57:14;;;;;;;27.05;12.73;;;;;;;;;;5099779;28;20040;-78
2022/11/15 07:59:40;;;;;;;22.50;10.80;;;;;;;;;;5094578;28;20054;-78
2022/11/15 08:02:08;;;;;;;24.98;9.52;;;;;;;;;;5097483;28;20503;-78
2022/11/15 08:04:35;;;;;;;18.25;8.07;;;;;;;;;;5096394;28;20070;-78
2022/11/15 08:07:01;;;;;;;23.08;10.27;;;;;;;;;;5088515;28;20052;-78
2022/11/15 08:09:27;;;;;;;17.02;8.20;;;;;;;;;;5093749;28;20044;-77
2022/11/15 08:11:54;;;;;;;16.13;7.53;;;;;;;;;;5091266;28;20040;-77
2022/11/15 08:14:21;;;;;;;12.82;7.10;;;;;;;;;;5091723;28;20309;-79
2022/11/15 08:16:48;;;;;;;12.55;6.35;;;;;;;;;;5093210;28;20044;-79
2022/11/15 08:19:15;;;;;;;19.52;6.82;;;;;;;;;;5094069;28;20047;-79
2022/11/15 08:21:41;;;;;;;12.32;6.65;;;;;;;;;;5095040;28;20348;-79
2022/11/15 08:24:09;;;;;;;12.95;5.88;;;;;;;;;;5093061;28;20048;-79
2022/11/15 08:26:35;;;;;;;14.00;5.95;;;;;;;;;;5093500;28;20057;-79
2022/11/15 08:29:02;;;;;;;14.07;6.30;;;;;;;;;;5093929;28;20067;-79
2022/11/15 08:31:28;;;;;;;15.20;5.90;;;;;;;;;;5094585;28;20082;-79
2022/11/15 08:33:54;;;;;;;13.18;5.72;;;;;;;;;;5092918;28;20131;-79
2022/11/15 08:36:21;;;;;;;13.52;5.65;;;;;;;;;;5075619;28;20054;-79
2022/11/15 08:38:47;;;;;;;19.10;6.38;;;;;;;;;;5093572;28;20404;-80
2022/11/15 08:41:18;;;;;;;21.73;6.65;;;;;;;;;;5092187;28;20804;-79
2022/11/15 08:43:45;;;;;;;15.48;6.70;;;;;;;;;;5090616;28;20044;-80
2022/11/15 08:46:12;;;;;;;15.93;6.40;;;;;;;;;;5092666;28;20044;-80
2022/11/15 08:48:39;;;;;;;17.83;7.40;;;;;;;;;;5092911;28;20040;-80
2022/11/15 08:51:05;;;;;;;14.20;6.50;;;;;;;;;;5090554;28;20059;-80
2022/11/15 08:53:33;;;;;;;16.75;6.22;;;;;;;;;;5091079;28;20054;-78
2022/11/15 08:55:59;;;;;;;14.23;6.82;;;;;;;;;;5095754;28;20048;-80
2022/11/15 08:58:26;;;;;;;12.48;6.18;;;;;;;;;;5073233;28;20051;-78
2022/11/15 09:00:52;;;;;;;13.73;6.10;;;;;;;;;;5091031;28;20620;-79
2022/11/15 09:03:18;;;;;;;17.77;6.22;;;;;;;;;;5090562;28;20067;-79
2022/11/15 09:05:45;;;;;;;17.58;6.93;;;;;;;;;;5091472;28;20052;-79
2022/11/15 09:08:12;;;;;;;14.57;6.30;;;;;;;;;;5092175;28;20052;-79
2022/11/15 09:11:02;;;;;;;10.35;6.00;;;;;;;;;;5094803;28;20044;-78
2022/11/15 09:13:28;;;;;;;11.52;6.15;;;;;;;;;;5091336;28;20044;-78
2022/11/15 09:15:59;;;;;;;15.85;6.10;;;;;;;;;;5091543;28;20057;-78
2022/11/15 09:18:25;;;;;;;12.77;6.15;;;;;;;;;;5092721;28;20322;-78
2022/11/15 09:20:54;;;;;;;9.20;5.10;;;;;;;;;;5090885;28;20067;-79
2022/11/15 09:23:20;;;;;;;13.60;5.70;;;;;;;;;;5090128;28;20555;-78
2022/11/15 09:25:47;;;;;;;13.32;5.38;;;;;;;;;;5073971;28;20048;-79
2022/11/15 09:28:13;;;;;;;12.48;5.60;;;;;;;;;;5090623;28;20559;-79
2022/11/15 09:30:40;;;;;;;14.23;5.90;;;;;;;;;;5091030;28;20492;-79
2022/11/15 09:33:10;;;;;;;10.93;5.10;;;;;;;;;;5091107;28;20066;-79
2022/11/15 09:35:37;;;;;;;9.30;5.30;;;;;;;;;;5091010;28;20062;-79
2022/11/15 09:38:04;;;;;;;8.30;5.03;;;;;;;;;;5073547;28;20044;-78
2022/11/15 09:40:31;;;;;;;8.00;4.57;;;;;;;;;;5092299;28;20135;-79
2022/11/15 09:43:07;;;;;;;7.85;4.07;;;;;;;;;;5089777;28;20081;-79
2022/11/15 09:45:39;;;;;;;9.82;4.32;;;;;;;;;;5090136;28;20504;-78
2022/11/15 09:48:18;;;;;;;7.53;3.97;;;;;;;;;;5092004;28;20397;-79
2022/11/15 09:50:53;;;;;;;10.50;4.22;;;;;;;;;;5090578;28;20050;-79
2022/11/15 09:53:45;;;;;;;7.30;4.38;;;;;;;;;;5072155;28;20173;-78
2022/11/15 09:56:34;;;;;;;9.93;3.90;;;;;;;;;;5097398;28;20511;-77
2022/11/15 09:59:33;;;;;;;7.75;4.15;;;;;;;;;;5095757;28;20043;-79
2022/11/15 10:02:15;;;;;;;6.35;3.65;;;;;;;;;;5036759;28;20052;-79
2022/11/15 10:04:41;;;;;;;7.85;3.58;;;;;;;;;;5082416;28;20260;-80
2022/11/15 10:07:26;;;;;;;6.10;3.63;;;;;;;;;;5091834;28;20126;-79
2022/11/15 10:10:08;;;;;;;7.87;4.00;;;;;;;;;;5091651;28;20130;-78
2022/11/15 10:12:35;;;;;;;7.10;3.58;;;;;;;;;;5089334;28;20055;-79
2022/11/15 10:15:04;;;;;;;7.60;3.10;;;;;;;;;;5089737;28;20058;-79
2022/11/15 10:17:30;;;;;;;8.27;3.28;;;;;;;;;;5091171;28;20048;-79
2022/11/15 10:20:06;;;;;;;5.65;3.42;;;;;;;;;;5090260;28;20130;-78
2022/11/15 10:22:32;;;;;;;10.27;3.25;;;;;;;;;;5089585;28;20075;-79
2022/11/15 10:25:19;;;;;;;5.63;2.90;;;;;;;;;;5091137;28;20054;-79
2022/11/15 10:28:00;;;;;;;6.05;3.10;;;;;;;;;;5075976;28;20112;-79
2022/11/15 10:30:32;;;;;;;5.22;2.88;;;;;;;;;;5089880;28;20051;-79
2022/11/15 10:33:08;;;;;;;6.25;2.78;;;;;;;;;;5089612;28;20044;-79
2022/11/15 10:35:34;;;;;;;8.18;2.60;;;;;;;;;;5089681;28;20078;-78
2022/11/15 10:38:11;;;;;;;8.65;2.50;;;;;;;;;;5090898;28;20048;-78
2022/11/15 10:40:38;;;;;;;7.15;2.70;;;;;;;;;;5091203;28;20043;-79
2022/11/15 10:43:04;;;;;;;8.30;2.72;;;;;;;;;;5089192;28;20048;-79
2022/11/15 10:45:32;;;;;;;4.80;2.15;;;;;;;;;;5089882;28;20054;-79
2022/11/15 10:48:14;;;;;;;5.72;2.25;;;;;;;;;;5072938;28;20107;-79
2022/11/15 10:50:41;;;;;;;4.68;2.45;;;;;;;;;;5089352;28;20514;-79
2022/11/15 10:53:22;;;;;;;4.68;2.75;;;;;;;;;;5089156;28;20040;-79
2022/11/15 10:55:50;;;;;;;4.57;2.47;;;;;;;;;;5072437;28;20048;-79
2022/11/15 10:58:35;;;;;;;5.95;2.28;;;;;;;;;;5089194;28;20055;-78
2022/11/15 11:01:09;;;;;;;5.65;2.08;;;;;;;;;;5072045;28;20059;-79
2022/11/15 11:03:39;;;;;;;8.82;2.47;;;;;;;;;;5091106;28;20105;-79
2022/11/15 11:06:16;;;;;;;5.47;1.90;;;;;;;;;;5089738;28;20508;-78
2022/11/15 11:09:00;;;;;;;12.32;2.17;;;;;;;;;;5090301;28;20200;-79
2022/11/15 11:11:46;;;;;;;3.72;2.10;;;;;;;;;;5089713;28;20484;-79
2022/11/15 11:14:17;;;;;;;4.07;1.70;;;;;;;;;;5087987;28;20098;-79
2022/11/15 11:16:47;;;;;;;6.28;2.28;;;;;;;;;;5094703;28;20048;-79
2022/11/15 11:19:13;;;;;;;3.53;1.80;;;;;;;;;;5093538;28;20083;-79
2022/11/15 11:21:40;;;;;;;3.03;2.00;;;;;;;;;;5093803;28;20504;-76
2022/11/15 11:24:32;;;;;;;5.43;2.13;;;;;;;;;;5092855;28;20650;-79
2022/11/15 11:26:59;;;;;;;4.63;2.17;;;;;;;;;;5088771;28;20048;-79
2022/11/15 11:29:31;;;;;;;6.63;2.10;;;;;;;;;;5093591;28;20056;-79
2022/11/15 11:31:57;;;;;;;3.42;2.00;;;;;;;;;;5094722;28;20048;-79
2022/11/15 11:34:33;;;;;;;3.85;2.08;;;;;;;;;;5090662;28;20449;-78
2022/11/15 11:36:59;;;;;;;;;;;;;;;;;;5076135;28;20048;-79
2022/11/15 11:39:44;;;;;;;3.35;1.98;;;;;;;;;;5092757;28;19927;-78
2022/11/15 11:42:34;;;;;;;8.50;1.75;;;;;;;;;;5074232;28;20052;-79
2022/11/15 11:45:19;;;;;;;3.10;1.60;;;;;;;;;;5028949;28;20044;-78
2022/11/15 11:48:04;;;;;;;5.68;1.73;;;;;;;;;;5076021;28;20051;-79
2022/11/15 11:50:32;;;;;;;4.33;1.60;;;;;;;;;;5093405;28;20040;-79
2022/11/15 11:53:01;;;;;;;5.10;1.60;;;;;;;;;;5091794;28;20304;-78
2022/11/15 11:55:32;;;;;;;4.18;1.50;;;;;;;;;;5093409;28;20075;-79
2022/11/15 11:58:05;;;;;;;3.08;1.42;;;;;;;;;;5092585;28;20396;-79
2022/11/15 12:00:34;;;;;;;6.43;1.88;;;;;;;;;;5075269;28;20136;-79
2022/11/15 12:03:15;;;;;;;4.60;1.50;;;;;;;;;;5092795;28;20198;-79
2022/11/15 12:05:48;;;;;;;2.67;1.58;;;;;;;;;;5086350;28;20436;-79
2022/11/15 12:08:15;;;;;;;3.95;1.55;;;;;;;;;;5093469;28;20051;-78
2022/11/15 12:10:44;;;;;;;4.60;1.58;;;;;;;;;;5093043;28;20440;-79
2022/11/15 12:13:14;;;;;;;3.15;1.60;;;;;;;;;;5073278;28;20451;-79
2022/11/15 12:15:59;;;;;;;2.40;1.42;;;;;;;;;;5092128;28;20044;-79
2022/11/15 12:18:28;;;;;;;5.38;2.30;;;;;;;;;;5093312;28;20476;-79
2022/11/15 12:20:54;;;;;;;5.13;2.00;;;;;;;;;;5074665;28;20044;-79
2022/11/15 12:23:28;;;;;;;3.70;1.50;;;;;;;;;;5095350;28;20087;-79
2022/11/15 12:26:07;;;;;;;3.10;1.70;;;;;;;;;;5097703;28;20464;-79
2022/11/15 12:28:49;;;;;;;5.13;1.50;;;;;;;;;;5092009;28;20071;-79
2022/11/15 12:31:40;;;;;;;3.10;1.50;;;;;;;;;;5093885;28;20071;-80
2022/11/15 12:34:13;;;;;;;3.05;1.60;;;;;;;;;;5091557;28;20059;-79
2022/11/15 12:36:41;;;;;;;4.45;1.80;;;;;;;;;;5092240;28;20500;-79
2022/11/15 12:39:08;;;;;;;3.50;1.48;;;;;;;;;;5094176;28;20364;-79
2022/11/15 12:41:36;;;;;;;4.20;1.60;;;;;;;;;;5096041;28;20040;-78
2022/11/15 12:44:03;;;;;;;7.07;1.83;;;;;;;;;;5077483;28;20135;-78
2022/11/15 12:46:30;;;;;;;3.95;1.70;;;;;;;;;;5099666;28;20198;-78
2022/11/15 12:49:07;;;;;;;6.60;1.80;;;;;;;;;;5101975;28;20063;-79
2022/11/15 12:51:43;;;;;;;5.20;1.55;;;;;;;;;;5102101;28;20048;-79
2022/11/15 12:54:09;;;;;;;;;;;;;;;;;;5081356;28;20048;-78
2022/11/15 12:56:36;;;;;;;;;;;;;;;;;;5103197;28;19920;-78
2022/11/15 12:59:03;;;;;;;;;;;;;;;;;;5109714;28;20114;-79
2022/11/15 13:01:32;;;;;;;3.75;1.60;;;;;;;;;;5104607;28;20004;-79
2022/11/15 13:04:08;;;;;;;6.93;1.67;;;;;;;;;;5091668;28;20059;-79
2022/11/15 13:06:58;;;;;;;5.22;1.52;;;;;;;;;;5072295;28;20045;-79
2022/11/15 13:09:33;;;;;;;4.80;1.48;;;;;;;;;;5061715;28;20048;-79
2022/11/15 13:12:04;;;;;;;5.68;1.60;;;;;;;;;;5071031;28;20670;-78
2022/11/15 13:14:36;;;;;;;2.53;1.33;;;;;;;;;;5077328;28;20082;-78
2022/11/15 13:17:12;;;;;;;3.13;1.40;;;;;;;;;;5092814;28;20052;-80
2022/11/15 13:19:39;;;;;;;4.15;1.40;;;;;;;;;;5091785;28;20147;-79
2022/11/15 13:24:54;;;;;;;4.07;1.48;;;;;;;;;;5091031;28;20504;-80
2022/11/15 13:27:21;;;;;;;2.90;1.60;;;;;;;;;;5089420;28;20168;-80
2022/11/15 13:29:48;;;;;;;6.57;1.92;;;;;;;;;;5090229;28;20054;-79
2022/11/15 13:32:15;;;;;;;3.75;1.60;;;;;;;;;;5092438;28;20523;-77
2022/11/15 13:34:46;;;;;;;4.30;1.60;;;;;;;;;;5091982;28;20052;-78
2022/11/15 13:37:21;;;;;;;3.13;1.70;;;;;;;;;;5091224;28;20119;-79
2022/11/15 13:39:47;;;;;;;5.18;1.50;;;;;;;;;;5091619;28;20093;-78
2022/11/15 13:42:15;;;;;;;8.98;1.67;;;;;;;;;;5071590;28;20040;-76
2022/11/15 13:44:55;;;;;;;3.42;1.40;;;;;;;;;;5089674;28;20040;-78
2022/11/15 13:47:21;;;;;;;6.68;2.10;;;;;;;;;;5090752;28;20541;-78
2022/11/15 13:49:47;;;;;;;6.63;2.08;;;;;;;;;;5090142;28;20081;-79
2022/11/15 13:52:16;;;;;;;5.00;2.33;;;;;;;;;;5089765;28;20087;-78
2022/11/15 13:55:03;;;;;;;6.07;2.45;;;;;;;;;;5089685;28;20048;-78
2022/11/15 13:57:34;;;;;;;4.30;2.03;;;;;;;;;;5072197;28;20432;-79
2022/11/15 14:00:02;;;;;;;8.00;2.33;;;;;;;;;;5089503;28;20083;-78
2022/11/15 14:02:30;;;;;;;4.68;2.33;;;;;;;;;;5088433;28;20526;-77
2022/11/15 14:04:59;;;;;;;6.55;2.20;;;;;;;;;;5078848;28;20044;-77
2022/11/15 14:07:27;;;;;;;8.10;2.42;;;;;;;;;;5091550;28;20051;-79
2022/11/15 14:09:54;;;;;;;4.53;2.08;;;;;;;;;;5090784;28;20056;-79
2022/11/15 14:12:26;;;;;;;10.38;2.40;;;;;;;;;;5090498;28;20070;-79
2022/11/15 14:14:53;;;;;;;3.42;2.03;;;;;;;;;;5089082;28;20584;-79
2022/11/15 14:17:40;;;;;;;4.00;2.03;;;;;;;;;;5091430;28;20054;-79
2022/11/15 14:20:28;;;;;;;7.43;1.77;;;;;;;;;;5073203;28;20051;-80
2022/11/15 14:22:56;;;;;;;5.45;2.00;;;;;;;;;;5089616;28;20106;-80
2022/11/15 14:25:23;;;;;;;3.88;2.08;;;;;;;;;;5073314;28;20044;-80
2022/11/15 14:28:08;;;;;;;10.63;2.13;;;;;;;;;;5071868;28;20044;-79
2022/11/15 14:30:35;;;;;;;3.87;2.53;;;;;;;;;;5072810;28;20111;-79
2022/11/15 14:33:02;;;;;;;7.57;2.40;;;;;;;;;;5091625;28;20048;-79
2022/11/15 14:35:29;;;;;;;5.20;2.33;;;;;;;;;;5089200;28;20058;-79
2022/11/15 14:37:55;;;;;;;6.72;2.40;;;;;;;;;;5089193;28;20075;-79
2022/11/15 14:40:21;;;;;;;6.68;3.03;;;;;;;;;;5090428;28;20044;-79
2022/11/15 14:42:48;;;;;;;6.72;2.85;;;;;;;;;;5089707;28;20412;-80
2022/11/15 14:45:16;;;;;;;4.68;2.33;;;;;;;;;;5091182;28;20048;-80
2022/11/15 14:47:42;;;;;;;10.35;2.95;;;;;;;;;;5105408;28;20054;-78
2022/11/15 14:50:13;;;;;;;8.88;3.00;;;;;;;;;;5098967;28;20062;-78
2022/11/15 14:52:39;;;;;;;7.95;2.88;;;;;;;;;;5091111;28;20047;-79
2022/11/15 14:55:14;;;;;;;11.52;3.00;;;;;;;;;;5095767;28;20046;-79
2022/11/15 14:57:41;;;;;;;10.43;3.17;;;;;;;;;;5068509;28;20592;-76
2022/11/15 15:00:08;;;;;;;6.13;2.85;;;;;;;;;;5092064;28;20361;-78
2022/11/15 15:02:35;;;;;;;6.53;2.53;;;;;;;;;;5076943;28;20050;-79